Time;durP1;ratioP1;P1;durP2;ratioP2;P2;SDS_P1;SDS_P2;PMS_P1;PMS_P2;Temp;Humidity;BMP_temperature;BMP_pressure;BME280_temperature;BME280_humidity;BME280_pressure;Samples;Min_cycle;Max_cycle;Signal;HPM_P1;HPM_P2
2023/01/03 00:01:36;;;;;;;;;6.00;4.00;;;;;9.60;100.00;101923.41;5068734;28;45373;-84
2023/01/03 00:04:02;;;;;;;;;4.33;4.33;;;;;9.57;100.00;101919.72;5068580;28;45599;-83
2023/01/03 00:06:30;;;;;;;;;4.00;4.00;;;;;9.57;100.00;101930.34;5069393;28;45544;-83
2023/01/03 00:08:58;;;;;;;;;5.33;5.33;;;;;9.36;100.00;101891.53;5049888;28;45734;-84
2023/01/03 00:14:12;;;;;;;;;4.00;4.00;;;;;9.33;100.00;101902.06;5067869;28;45715;-83
2023/01/03 00:16:38;;;;;;;;;5.33;5.33;;;;;9.48;100.00;101938.00;5068450;28;45542;-83
2023/01/03 00:19:08;;;;;;;;;8.00;6.67;;;;;9.46;100.00;101939.69;5050549;28;45479;-82
2023/01/03 00:21:34;;;;;;;;;4.00;4.00;;;;;9.30;100.00;101907.22;5070584;28;45324;-84
2023/01/03 00:24:00;;;;;;;;;4.67;4.67;;;;;9.27;100.00;101904.47;5068968;28;46547;-84
2023/01/03 00:26:26;;;;;;;;;6.00;6.00;;;;;9.37;100.00;101918.97;5068303;28;45466;-84
2023/01/03 00:28:52;;;;;;;;;4.00;4.00;;;;;9.36;100.00;101930.47;5051194;28;45426;-84
2023/01/03 00:31:18;;;;;;;;;7.00;5.33;;;;;9.32;100.00;101918.81;5067703;28;45528;-84
2023/01/03 00:33:43;;;;;;;;;2.00;2.00;;;;;9.33;100.00;101917.97;5050108;28;46726;-84
2023/01/03 00:36:09;;;;;;;;;5.00;4.00;;;;;9.32;100.00;101923.22;5067741;28;45387;-84
2023/01/03 00:38:35;;;;;;;;;4.67;4.67;;;;;9.25;100.00;101905.25;5047449;28;45381;-83
2023/01/03 00:41:09;;;;;;;;;10.00;9.00;;;;;9.25;100.00;101911.47;5067667;28;45833;-84
2023/01/03 00:43:35;;;;;;;;;7.00;6.00;;;;;9.28;100.00;101922.19;5066439;28;45366;-84
2023/01/03 00:46:08;;;;;;;;;8.00;6.00;;;;;9.23;100.00;101912.25;5068495;28;45767;-84
2023/01/03 00:48:34;;;;;;;;;7.33;7.33;;;;;9.25;100.00;101916.78;5047734;28;45501;-84
2023/01/03 00:51:07;;;;;;;;;8.67;5.67;;;;;9.24;100.00;101922.91;5048446;28;44952;-84
2023/01/03 00:53:36;;;;;;;;;5.33;5.33;;;;;9.21;100.00;101921.06;5050747;28;47139;-83
2023/01/03 00:56:07;;;;;;;;;6.67;4.00;;;;;9.21;100.00;101921.06;5050974;28;45202;-84
2023/01/03 00:58:32;;;;;;;;;9.33;8.00;;;;;9.18;100.00;101918.28;5045804;28;45474;-83
2023/01/03 01:01:06;;;;;;;;;6.00;6.00;;;;;9.15;100.00;101919.91;5047156;28;45544;-83
2023/01/03 01:03:34;;;;;;;;;3.67;3.67;;;;;9.13;100.00;101917.22;5047384;28;45804;-83
2023/01/03 01:05:59;;;;;;;;;6.67;6.67;;;;;9.07;100.00;101911.66;5044560;28;45319;-84
2023/01/03 01:08:25;;;;;;;;;3.00;3.00;;;;;9.10;100.00;101916.19;5044822;28;45595;-84
2023/01/03 01:11:02;;;;;;;;;5.33;5.33;;;;;9.10;100.00;101916.19;5045264;28;45385;-84
2023/01/03 01:13:30;;;;;;;;;6.67;4.00;;;;;9.12;100.00;101925.09;5046194;28;46307;-84
2023/01/03 01:16:12;;;;;;;;;5.67;5.67;;;;;9.12;100.00;101923.34;5047088;28;45415;-83
2023/01/03 01:18:39;;;;;;;;;5.33;5.33;;;;;9.10;100.00;101916.19;5048098;28;45362;-84
2023/01/03 01:21:09;;;;;;;;;5.67;5.67;;;;;9.08;100.00;101923.19;5048512;28;45468;-84
2023/01/03 01:23:37;;;;;;;;;7.33;7.33;;;;;8.99;100.00;101908.72;5047191;28;46802;-83
2023/01/03 01:26:04;;;;;;;;;6.00;6.00;;;;;9.01;100.00;101906.13;5047453;28;45517;-83
2023/01/03 01:28:30;;;;;;;;;6.00;6.00;;;;;9.01;100.00;101914.09;5046878;28;45431;-83
2023/01/03 01:31:01;;;;;;;;;3.67;3.67;;;;;9.04;100.00;101916.84;5048349;28;44870;-83
2023/01/03 01:33:27;;;;;;;;;4.00;4.00;;;;;9.04;100.00;101931.88;5045648;28;45702;-83
2023/01/03 01:35:53;;;;;;;;;8.33;6.33;;;;;8.96;100.00;101919.19;5046570;28;46425;-83
2023/01/03 01:38:19;;;;;;;;;6.00;6.00;;;;;8.92;100.00;101911.94;5049142;28;44818;-83
2023/01/03 01:40:45;;;;;;;;;5.00;5.00;;;;;9.01;100.00;101927.34;5046296;28;45536;-83
2023/01/03 01:46:19;;;;;;;;;6.00;6.00;;;;;8.96;100.00;101929.78;5044872;28;45569;-84
2023/01/03 01:48:46;;;;;;;;;7.00;5.00;;;;;8.90;100.00;101924.25;5043340;28;45381;-84
2023/01/03 01:51:12;;;;;;;;;4.00;4.00;;;;;8.86;100.00;101917.00;5046231;28;45537;-84
2023/01/03 01:53:41;;;;;;;;;4.00;2.00;;;;;8.95;100.00;101929.75;5039383;28;47639;-84
2023/01/03 01:56:13;;;;;;;;;3.33;3.00;;;;;8.93;100.00;101935.00;5043570;28;45541;-84
2023/01/03 01:58:42;;;;;;;;;4.67;4.67;;;;;8.92;100.00;101941.13;5045110;28;45494;-84
2023/01/03 02:01:11;;;;;;;;;2.00;2.00;;;;;8.90;100.00;101932.22;5044769;28;45551;-84
2023/01/03 02:03:38;;;;;;;;;6.00;6.00;;;;;8.88;100.00;101935.66;5046583;28;46132;-84
2023/01/03 02:06:07;;;;;;;;;6.00;4.67;;;;;8.84;100.00;101931.97;5046795;28;45491;-83
2023/01/03 02:08:33;;;;;;;;;8.33;6.00;;;;;8.82;100.00;101942.50;5043642;28;45509;-83
2023/01/03 02:11:36;;;;;;;;;7.00;7.00;;;;;8.87;100.00;101944.47;5061897;28;45339;-84
2023/01/03 02:14:24;;;;;;;;;5.33;4.00;;;;;8.85;100.00;101949.72;5044823;28;47762;-84
2023/01/03 02:17:18;;;;;;;;;5.33;5.33;;;;;8.85;100.00;101952.34;5044081;28;45555;-84
2023/01/03 02:19:47;;;;;;;;;8.33;6.00;;;;;8.86;100.00;101955.91;5045598;28;45308;-84
2023/01/03 02:22:37;;;;;;;;;3.00;3.00;;;;;8.86;100.00;101969.16;5046256;28;45493;-84
2023/01/03 02:25:16;;;;;;;;;4.00;4.00;;;;;8.85;100.00;101962.03;5046856;28;45530;-84
2023/01/03 02:28:31;;;;;;;;;6.00;3.67;;;;;8.84;100.00;101962.91;5046470;28;45355;-84
2023/01/03 02:31:23;;;;;;;;;4.00;4.00;;;;;8.79;100.00;101952.09;4986926;28;45312;-84
2023/01/03 02:34:13;;;;;;;;;3.00;3.00;;;;;8.85;100.00;101962.03;4985080;28;45487;-84
2023/01/03 02:36:58;;;;;;;;;4.00;4.00;;;;;8.83;100.00;101954.03;4968037;28;47255;-84
2023/01/03 02:39:32;;;;;;;;;4.00;4.00;;;;;8.80;100.00;101969.81;4966693;28;45822;-84
2023/01/03 02:45:12;;;;;;;;;3.33;3.33;;;;;8.84;100.00;101961.13;4983071;28;45338;-83
2023/01/03 02:47:46;;;;;;;;;3.00;3.00;;;;;8.76;100.00;101944.91;4982933;28;45450;-84
2023/01/03 02:50:13;;;;;;;;;6.67;6.67;;;;;8.78;100.00;101945.88;4963884;28;45484;-84
2023/01/03 02:52:40;;;;;;;;;5.33;5.33;;;;;8.82;100.00;101962.81;4962686;28;45986;-83
2023/01/03 02:55:14;;;;;;;;;6.00;3.00;;;;;8.83;100.00;101959.34;4963098;28;45602;-84
2023/01/03 02:57:51;;;;;;;;;8.00;6.67;;;;;8.81;100.00;101961.94;4962294;28;48104;-84
2023/01/03 03:00:20;;;;;;;;;6.67;6.00;;;;;8.84;100.00;101961.13;4962942;28;44923;-84
2023/01/03 03:02:54;;;;;;;;;3.67;3.67;;;;;8.84;100.00;101958.50;4963697;28;44780;-84
2023/01/03 03:05:37;;;;;;;;;3.67;3.67;;;;;8.78;100.00;101955.59;4970321;28;45367;-83
2023/01/03 03:08:02;;;;;;;;;7.33;3.00;;;;;8.81;100.00;101948.66;5025784;28;46974;-84
2023/01/03 03:13:32;;;;;;;;;3.67;3.67;;;;;8.83;100.00;101959.34;5028566;28;45462;-84
2023/01/03 03:16:04;;;;;;;;;3.67;3.67;;;;;8.83;100.00;101954.03;5028476;28;45458;-84
2023/01/03 03:18:59;;;;;;;;;4.00;3.00;;;;;8.88;100.00;101962.19;5042837;28;46966;-84
2023/01/03 03:30:01;;;;;;;;;3.67;3.67;;;;;8.95;100.00;101970.47;5027022;28;45434;-83
2023/01/03 03:32:30;;;;;;;;;2.00;2.00;;;;;8.99;100.00;101971.50;5028084;28;45470;-84
2023/01/03 03:38:26;;;;;;;;;6.00;3.00;;;;;9.06;100.00;101977.94;5027315;28;45524;-83
2023/01/03 03:47:37;;;;;;;;;6.67;6.00;;;;;9.05;100.00;101970.81;5026919;28;45476;-84
2023/01/03 03:50:23;;;;;;;;;4.67;4.67;;;;;9.06;100.00;101968.22;5066074;28;45362;-84
2023/01/03 03:52:54;;;;;;;;;7.00;7.00;;;;;9.10;100.00;101961.28;5066979;28;45461;-84
2023/01/03 03:55:52;;;;;;;;;6.67;6.67;;;;;9.15;100.00;101975.63;5066409;28;45370;-84
2023/01/03 03:58:25;;;;;;;;;8.00;8.00;;;;;9.15;100.00;101970.31;5037414;28;45493;-83
2023/01/03 04:00:55;;;;;;;;;6.67;5.67;;;;;9.12;100.00;101979.09;5066046;28;45432;-84
2023/01/03 04:03:22;;;;;;;;;7.67;6.67;;;;;9.10;100.00;101974.56;5047963;28;46646;-83
2023/01/03 04:05:55;;;;;;;;;7.33;6.00;;;;;9.11;100.00;101979.00;5049564;28;45449;-83
2023/01/03 04:08:21;;;;;;;;;4.00;4.00;;;;;9.19;100.00;101981.16;5067355;28;45397;-83
2023/01/03 04:10:46;;;;;;;;;5.67;4.00;;;;;9.29;100.00;101987.72;5048846;28;45001;-83
2023/01/03 04:13:12;;;;;;;;;8.00;8.00;;;;;9.34;100.00;101990.56;5050377;28;46893;-83
2023/01/03 04:15:37;;;;;;;;;6.67;6.67;;;;;9.32;100.00;101998.44;5066481;28;44927;-83
2023/01/03 04:18:03;;;;;;;;;6.67;6.67;;;;;9.30;100.00;101991.28;5067834;28;45303;-84
2023/01/03 04:20:28;;;;;;;;;7.33;7.00;;;;;9.29;100.00;101993.03;5050863;28;45865;-83
2023/01/03 04:22:54;;;;;;;;;6.33;6.33;;;;;9.36;100.00;101995.06;5051090;28;46568;-83
2023/01/03 04:25:23;;;;;;;;;7.67;7.67;;;;;9.34;100.00;101991.44;5051517;28;45400;-84
2023/01/03 04:27:48;;;;;;;;;6.33;5.33;;;;;9.36;100.00;101996.84;5052028;28;45232;-84
2023/01/03 04:30:14;;;;;;;;;7.00;7.00;;;;;9.44;100.00;102003.34;5050174;28;45643;-83
2023/01/03 04:32:39;;;;;;;;;6.67;6.00;;;;;9.45;100.00;101991.84;5067606;28;46507;-84
2023/01/03 04:35:05;;;;;;;;;8.00;8.00;;;;;9.54;100.00;102002.84;5067401;28;45450;-84
2023/01/03 04:37:31;;;;;;;;;4.00;4.00;;;;;9.51;100.00;102001.81;5049354;28;45485;-84
2023/01/03 04:39:56;;;;;;;;;4.67;4.67;;;;;9.58;100.00;102014.50;5050997;28;44804;-84
2023/01/03 04:45:07;;;;;;;;;5.67;4.00;;;;;9.58;100.00;102006.53;5067950;28;45445;-83
2023/01/03 04:47:32;;;;;;;;;9.00;7.00;;;;;9.58;100.00;102001.22;5050249;28;45434;-84
2023/01/03 04:49:58;;;;;;;;;5.67;5.33;;;;;9.63;100.00;102014.66;5067492;28;45374;-83
2023/01/03 04:52:23;;;;;;;;;7.67;7.00;;;;;9.66;100.00;102013.03;5049872;28;47013;-83
2023/01/03 04:54:49;;;;;;;;;7.00;7.00;;;;;9.65;100.00;102013.88;5049286;28;45400;-83
2023/01/03 04:57:14;;;;;;;;;12.00;8.33;;;;;9.64;100.00;102017.41;5049402;28;45395;-83
2023/01/03 04:59:40;;;;;;;;;7.00;7.00;;;;;9.62;100.00;102016.44;5049671;28;45477;-83
2023/01/03 05:02:05;;;;;;;;;9.67;8.00;;;;;9.59;100.00;102018.94;5067237;28;45465;-83
2023/01/03 05:04:30;;;;;;;;;8.00;8.00;;;;;9.57;100.00;102020.66;5049714;28;45457;-83
2023/01/03 05:06:56;;;;;;;;;12.33;8.00;;;;;9.58;100.00;102017.16;5049342;28;45387;-83
2023/01/03 05:09:22;;;;;;;;;7.00;6.33;;;;;9.64;100.00;102017.41;5048250;28;45376;-83
2023/01/03 05:11:48;;;;;;;;;9.00;8.00;;;;;9.63;100.00;102010.25;5047087;28;45370;-83
2023/01/03 05:14:16;;;;;;;;;6.00;5.33;;;;;9.65;100.00;102013.88;5066641;28;45482;-83
2023/01/03 05:16:42;;;;;;;;;4.67;4.67;;;;;9.53;100.00;102003.72;5049589;28;45362;-83
2023/01/03 05:19:07;;;;;;;;;7.33;5.00;;;;;9.44;100.00;101997.13;5048156;28;45407;-83
2023/01/03 05:27:22;;;;;;;;;7.00;7.00;;;;;9.31;100.00;102017.91;5005335;28;45486;-84
2023/01/03 05:29:51;;;;;;;;;11.33;8.00;;;;;9.32;100.00;102026.75;5003746;28;45459;-83
2023/01/03 05:32:17;;;;;;;;;7.67;7.33;;;;;9.27;100.00;102021.28;4986442;28;48072;-83
2023/01/03 05:34:42;;;;;;;;;8.33;7.67;;;;;9.25;100.00;102014.06;4985745;28;45430;-84
2023/01/03 05:37:08;;;;;;;;;8.00;7.00;;;;;9.19;100.00;102002.38;4984886;28;45551;-83
2023/01/03 05:39:33;;;;;;;;;7.33;7.00;;;;;9.18;100.00;102010.28;5002253;28;45982;-84
2023/01/03 05:41:59;;;;;;;;;7.00;6.33;;;;;9.08;100.00;102008.09;5001997;28;47023;-83
2023/01/03 05:44:25;;;;;;;;;8.00;7.00;;;;;9.02;100.00;102014.06;5002765;28;45468;-83
2023/01/03 05:46:52;;;;;;;;;7.00;7.00;;;;;8.82;100.00;101995.56;5002908;28;44822;-83
2023/01/03 05:49:17;;;;;;;;;8.00;7.00;;;;;8.80;100.00;102014.91;5002880;28;44866;-83
2023/01/03 05:51:43;;;;;;;;;7.00;5.33;;;;;8.71;100.00;101995.97;5003975;28;47153;-82
2023/01/03 05:54:14;;;;;;;;;7.33;7.33;;;;;8.76;100.00;102027.13;5003159;28;45780;-84
2023/01/03 05:56:39;;;;;;;;;5.33;5.33;;;;;8.71;100.00;102022.50;4987928;28;45472;-83
2023/01/03 05:59:06;;;;;;;;;6.67;6.00;;;;;8.53;100.00;102004.97;5004667;28;45554;-84
2023/01/03 06:01:32;;;;;;;;;7.33;7.33;;;;;8.66;100.00;102026.69;4989442;28;47157;-83
2023/01/03 06:03:58;;;;;;;;;6.00;6.00;;;;;8.59;100.00;102034.38;5027009;28;45569;-82
2023/01/03 06:06:30;;;;;;;;;7.00;7.00;;;;;8.43;100.00;102016.00;5043031;28;45343;-83
2023/01/03 06:08:55;;;;;;;;;8.67;7.67;;;;;8.34;100.00;102005.88;5044549;28;44851;-83
2023/01/03 06:11:21;;;;;;;;;4.00;4.00;;;;;8.41;100.00;102021.25;5030177;28;45458;-83
2023/01/03 06:13:46;;;;;;;;;3.67;3.00;;;;;8.52;100.00;102039.34;5025149;28;45428;-85
2023/01/03 06:18:59;;;;;;;;;7.33;6.67;;;;;8.52;100.00;102034.94;5025721;28;45487;-83
2023/01/03 06:21:25;;;;;;;;;5.00;4.00;;;;;8.52;100.00;102037.59;5023429;28;47016;-83
2023/01/03 06:23:50;;;;;;;;;7.00;7.00;;;;;8.46;100.00;102037.34;5026351;28;44841;-83
2023/01/03 06:26:20;;;;;;;;;6.33;6.00;;;;;8.46;100.00;102040.00;5026790;28;45530;-83
2023/01/03 06:28:46;;;;;;;;;4.67;4.00;;;;;8.43;100.00;102052.22;5027539;28;45730;-83
2023/01/03 06:31:12;;;;;;;;;8.00;8.00;;;;;8.49;100.00;102057.81;5026254;28;46902;-83
2023/01/03 06:33:38;;;;;;;;;6.33;6.00;;;;;8.47;100.00;102060.38;5043041;28;45790;-84
2023/01/03 06:36:07;;;;;;;;;4.67;4.67;;;;;8.44;100.00;102054.03;5026230;28;45508;-83
2023/01/03 06:38:32;;;;;;;;;5.33;5.33;;;;;8.37;100.00;102052.81;5026983;28;44912;-83
2023/01/03 06:40:58;;;;;;;;;8.67;6.33;;;;;8.42;100.00;102067.22;5026840;28;46897;-84
2023/01/03 06:43:23;;;;;;;;;6.67;5.33;;;;;8.41;100.00;102062.75;5031023;28;45437;-83
2023/01/03 06:54:06;;;;;;;;;8.33;8.00;;;;;8.25;100.00;102053.19;5055037;28;45398;-83
2023/01/03 06:56:32;;;;;;;;;7.33;6.67;;;;;8.23;100.00;102056.59;5071818;28;45470;-83
2023/01/03 06:58:58;;;;;;;;;7.00;7.00;;;;;8.29;100.00;102072.78;5069829;28;45487;-84
2023/01/03 07:01:24;;;;;;;;;8.33;7.33;;;;;8.19;100.00;102060.84;5051783;28;46934;-83
2023/01/03 07:03:50;;;;;;;;;11.00;6.33;;;;;8.26;100.00;102075.28;5050157;28;45359;-83
2023/01/03 07:06:15;;;;;;;;;10.33;8.67;;;;;8.21;100.00;102073.34;5052111;28;45355;-84
2023/01/03 07:13:57;;;;;;;;;8.00;7.67;;;;;8.06;100.00;102061.13;5072389;28;45412;-83
2023/01/03 07:14:49;;;;;;;;;5.00;5.00;;;;;8.18;100.00;102089.13;5071375;28;45440;-83
2023/01/03 07:17:15;;;;;;;;;8.00;6.67;;;;;8.17;100.00;102091.69;5053124;28;45433;-84
2023/01/03 07:19:40;;;;;;;;;7.00;7.00;;;;;8.19;100.00;102096.22;5071123;28;45469;-83
2023/01/03 07:22:06;;;;;;;;;8.33;7.00;;;;;8.17;100.00;102087.28;5055814;28;47209;-83
2023/01/03 07:24:31;;;;;;;;;6.00;4.67;;;;;8.19;100.00;102093.56;5056042;28;44779;-84
2023/01/03 07:26:57;;;;;;;;;11.00;8.00;;;;;8.15;100.00;102093.34;5054786;28;45494;-84
2023/01/03 07:29:22;;;;;;;;;11.00;9.00;;;;;8.17;100.00;102096.97;5073775;28;44745;-83
2023/01/03 07:31:51;;;;;;;;;8.00;6.67;;;;;8.21;100.00;102097.19;5072935;28;45464;-83
2023/01/03 07:34:18;;;;;;;;;10.00;9.00;;;;;8.30;100.00;102098.44;5055165;28;45433;-83
2023/01/03 07:36:44;;;;;;;;;12.67;8.00;;;;;8.24;100.00;102091.13;5074232;28;45536;-84
2023/01/03 07:39:09;;;;;;;;;10.33;10.33;;;;;8.30;100.00;102099.38;5055771;28;45409;-84
2023/01/03 07:44:22;;;;;;;;;9.67;8.00;;;;;8.32;100.00;102096.75;5073841;28;45292;-84
2023/01/03 07:46:47;;;;;;;;;9.00;8.67;;;;;8.32;100.00;102102.06;5072802;28;45397;-84
2023/01/03 07:49:13;;;;;;;;;10.67;10.67;;;;;8.24;100.00;102091.13;5052018;28;45725;-84
2023/01/03 07:51:38;;;;;;;;;12.67;11.67;;;;;8.28;100.00;102109.00;5050331;28;47626;-84
2023/01/03 07:54:04;;;;;;;;;11.33;11.33;;;;;8.29;100.00;102118.75;5053458;28;45373;-84
2023/01/03 07:59:52;;;;;;;;;10.33;9.00;;;;;8.32;100.00;102117.97;5052252;28;44715;-84
2023/01/03 08:02:19;;;;;;;;;14.67;11.00;;;;;8.33;100.00;102114.50;5051094;28;47637;-84
2023/01/03 08:04:45;;;;;;;;;12.00;10.67;;;;;8.31;100.00;102116.16;5052559;28;44817;-84
2023/01/03 08:07:11;;;;;;;;;9.33;9.00;;;;;8.37;100.00;102122.66;5052973;28;45435;-85
2023/01/03 08:15:44;;;;;;;;;8.00;8.00;;;;;8.46;100.00;102137.19;5051492;28;45405;-83
2023/01/03 08:18:11;;;;;;;;;9.67;8.67;;;;;8.43;100.00;102122.06;5051702;28;45389;-82
2023/01/03 08:20:54;;;;;;;;;9.33;9.33;;;;;8.50;100.00;102129.44;5053834;28;45359;-83
2023/01/03 08:23:22;;;;;;;;;4.67;4.67;;;;;8.49;100.00;102137.34;5054211;28;46723;-84
2023/01/03 08:25:49;;;;;;;;;4.00;4.00;;;;;8.47;100.00;102137.25;5053383;28;45450;-85
2023/01/03 08:28:18;;;;;;;;;7.33;7.33;;;;;8.46;100.00;102132.78;5038168;28;45710;-85
2023/01/03 08:30:48;;;;;;;;;7.00;6.00;;;;;8.57;100.00;102149.19;5050800;28;45498;-85
2023/01/03 08:33:21;;;;;;;;;8.00;7.00;;;;;8.63;100.00;102151.22;5059916;28;47068;-82
2023/01/03 08:36:12;;;;;;;;;13.67;12.00;;;;;8.71;100.00;102136.56;5048581;28;44829;-84
2023/01/03 08:38:44;;;;;;;;;15.00;9.33;;;;;8.81;100.00;102149.38;5055562;28;46413;-83
2023/01/03 08:41:21;;;;;;;;;11.33;9.00;;;;;8.90;100.00;102156.81;5055947;28;45117;-84
2023/01/03 08:43:48;;;;;;;;;10.33;8.33;;;;;8.83;100.00;102134.44;5056855;28;46396;-83
2023/01/03 08:46:16;;;;;;;;;9.00;8.00;;;;;9.00;100.00;102153.72;5052709;28;45752;-84
2023/01/03 08:48:43;;;;;;;;;8.00;6.67;;;;;9.02;100.00;102152.03;5051515;28;45453;-84
2023/01/03 08:51:11;;;;;;;;;8.00;6.33;;;;;9.05;100.00;102151.25;5053412;28;44762;-85
2023/01/03 08:53:45;;;;;;;;;7.00;7.00;;;;;8.88;100.00;102106.34;5077001;28;45460;-83
2023/01/03 08:56:19;;;;;;;;;7.67;7.00;;;;;8.99;100.00;102110.38;5056005;28;45286;-84
2023/01/03 08:58:58;;;;;;;;;4.67;4.67;;;;;9.26;100.00;102144.22;5055078;28;44882;-83
2023/01/03 09:01:34;;;;;;;;;9.67;7.33;;;;;9.22;100.00;102134.31;5051226;28;45557;-82
2023/01/03 09:04:00;;;;;;;;;5.33;4.00;;;;;9.09;100.00;102105.44;5063322;28;45548;-82
2023/01/03 09:06:46;;;;;;;;;8.67;8.67;;;;;9.39;100.00;102154.53;5067152;28;45436;-83
2023/01/03 09:09:14;;;;;;;;;8.00;8.00;;;;;9.43;100.00;102149.31;5046235;28;44816;-85
2023/01/03 09:11:46;;;;;;;;;5.33;3.00;;;;;9.34;100.00;102126.84;5077275;28;45334;-82
2023/01/03 09:14:12;;;;;;;;;8.33;7.00;;;;;9.35;100.00;102107.44;5050084;28;47547;-84
2023/01/03 09:16:45;;;;;;;;;7.33;7.00;;;;;9.47;100.00;102122.03;5050294;28;44955;-83
2023/01/03 09:19:16;;;;;;;;;7.00;7.00;;;;;9.77;100.00;102168.44;5070199;28;45479;-84
2023/01/03 09:21:48;;;;;;;;;13.00;11.67;;;;;9.80;100.00;102165.91;5064629;28;45365;-85
2023/01/03 09:24:32;;;;;;;;;14.33;9.00;;;;;9.75;100.00;102158.59;5071448;28;45255;-85
2023/01/03 09:26:58;;;;;;;;;9.00;9.00;;;;;9.62;100.00;102130.66;5052855;28;44752;-85
2023/01/03 09:32:31;;;;;;;;;8.00;8.00;;;;;9.58;100.00;102134.03;5062340;28;45476;-86
2023/01/03 09:35:10;;;;;;;;;8.00;8.00;;;;;9.77;100.00;102160.47;5073148;28;45855;-83
2023/01/03 09:37:50;;;;;;;;;10.67;9.33;;;;;9.92;100.00;102165.50;5070174;28;45588;-83
2023/01/03 09:40:20;;;;;;;;;7.00;7.00;;;;;9.79;100.00;102118.91;5073514;28;45217;-83
2023/01/03 09:43:12;;;;;;;;;9.00;8.00;;;;;9.97;100.00;102149.72;5059139;28;45439;-83
2023/01/03 09:45:56;;;;;;;;;8.00;8.00;;;;;9.91;100.00;102136.19;5072665;28;45416;-84
2023/01/03 09:48:47;;;;;;;;;9.67;7.67;;;;;9.78;100.00;102101.19;5055052;28;44863;-85
2023/01/03 10:04:26;;;;;;;;;8.33;8.00;;;;;10.19;100.00;102163.00;5005944;28;45571;-84
2023/01/03 10:07:12;;;;;;;;;9.00;9.00;;;;;10.17;100.00;102162.03;4995656;28;45471;-82
2023/01/03 10:10:05;;;;;;;;;6.33;5.33;;;;;10.15;100.00;102163.72;5029176;28;47237;-83
2023/01/03 10:13:53;;;;;;;;;;;;;;;;;;;;;
2023/01/03 10:17:05;;;;;;;;;11.00;8.33;;;;;10.51;100.00;102195.28;4956115;28;44874;-85
2023/01/03 10:20:08;;;;;;;;;14.33;11.00;;;;;10.65;100.00;102195.78;4992985;28;45293;-83
2023/01/03 10:22:55;;;;;;;;;11.00;11.00;;;;;10.63;100.00;102185.94;5006532;28;46795;-84
2023/01/03 10:25:24;;;;;;;;;7.67;7.67;;;;;10.68;100.00;102187.91;4980550;28;45525;-84
2023/01/03 10:28:05;;;;;;;;;7.00;6.67;;;;;10.63;100.00;102159.34;4992901;28;45469;-82
2023/01/03 10:31:11;;;;;;;;;7.00;7.00;;;;;10.78;100.00;102186.50;4992053;28;45399;-84
2023/01/03 10:33:52;;;;;;;;;10.67;7.00;;;;;10.68;100.00;102192.34;4992800;28;45511;-83
2023/01/03 10:36:25;;;;;;;;;7.33;6.33;;;;;10.40;100.00;102133.72;4995484;28;45489;-85
2023/01/03 10:39:15;;;;;;;;;8.00;8.00;;;;;10.74;100.00;102187.22;5008652;28;45872;-85
2023/01/03 10:41:51;;;;;;;;;3.00;3.00;;;;;10.69;100.00;102188.84;5000643;28;45600;-85
2023/01/03 10:44:30;;;;;;;;;8.00;7.00;;;;;10.57;100.00;102187.53;5011628;28;45449;-86
2023/01/03 10:47:19;;;;;;;;;4.00;4.00;;;;;10.41;100.00;102170.06;5012317;28;44810;-84
2023/01/03 10:50:02;;;;;;;;;4.67;4.67;;;;;10.32;100.00;102160.84;4994422;28;44755;-81
2023/01/03 10:52:36;;;;;;;;;3.00;3.00;;;;;10.33;100.00;102154.69;5010148;28;45576;-83
2023/01/03 10:55:17;;;;;;;;;4.00;4.00;;;;;10.56;100.00;102172.44;5016764;28;46271;-82
2023/01/03 10:58:05;;;;;;;;;5.33;3.67;;;;;10.39;100.00;102145.19;5010975;28;44715;-84
2023/01/03 11:00:41;;;;;;;;;3.33;3.33;;;;;10.56;100.00;102182.13;4956342;28;44838;-84
2023/01/03 11:03:08;;;;;;;;;5.00;5.00;;;;;10.51;100.00;102181.97;4972054;28;45607;-84
2023/01/03 11:05:45;;;;;;;;;4.00;4.00;;;;;10.51;100.00;102181.97;4961994;28;47806;-83
2023/01/03 11:08:44;;;;;;;;;;;;;;;;;;;;;
2023/01/03 11:11:40;;;;;;;;;7.33;6.67;;;;;10.48;100.00;102180.94;4968890;28;68134;-84
2023/01/03 11:14:27;;;;;;;;;8.67;8.67;;;;;10.49;100.00;102173.03;4979640;28;44977;-84
2023/01/03 11:17:15;;;;;;;;;10.67;7.33;;;;;10.21;100.00;102124.09;4955448;28;46898;-85
2023/01/03 11:19:47;;;;;;;;;7.67;5.00;;;;;10.44;100.00;102179.91;4954866;28;45234;-85
2023/01/03 11:22:45;;;;;;;;;10.00;9.00;;;;;10.33;100.00;102155.59;4977721;28;45031;-85
2023/01/03 11:25:53;;;;;;;;;6.67;6.67;;;;;10.38;100.00;102153.09;4960206;28;45340;-83
2023/01/03 11:29:05;;;;;;;;;6.33;6.33;;;;;10.45;100.00;102160.47;4960512;28;46615;-84
2023/01/03 11:34:57;;;;;;;;;;;;;;;;;;;;;
2023/01/03 11:41:24;;;;;;;;;4.00;4.00;;;;;10.40;100.00;102172.66;4972185;28;46376;-84
2023/01/03 11:44:31;;;;;;;;;4.67;3.33;;;;;10.48;100.00;102160.56;4974900;28;44893;-82
2023/01/03 11:47:23;;;;;;;;;9.33;6.67;;;;;10.48;100.00;102160.56;4914715;28;45569;-82
2023/01/03 11:50:29;;;;;;;;;9.00;9.00;;;;;10.43;100.00;102154.19;4902465;28;45420;-82
2023/01/03 11:53:20;;;;;;;;;5.33;5.33;;;;;10.38;100.00;102143.38;4896662;28;45585;-83
2023/01/03 11:56:19;;;;;;;;;7.67;5.00;;;;;10.34;100.00;102148.50;4899091;29;45323;-82
2023/01/03 11:58:57;;;;;;;;;10.00;8.67;;;;;10.30;100.00;102138.59;4914089;29;44885;-83
2023/01/03 12:05:06;;;;;;;;;9.67;9.00;;;;;10.35;100.00;102134.38;4894504;29;45049;-84
2023/01/03 12:07:52;;;;;;;;;10.33;8.00;;;;;10.40;100.00;102138.09;4925520;28;45438;-84
2023/01/03 12:10:50;;;;;;;;;6.00;6.00;;;;;10.41;100.00;102131.94;4910858;28;45367;-84
2023/01/03 12:17:06;;;;;;;;;6.33;4.67;;;;;10.49;100.00;102133.13;4906502;28;45670;-83
2023/01/03 12:19:45;;;;;;;;;6.33;4.33;;;;;10.51;100.00;102127.88;4988530;28;45442;-84
2023/01/03 12:22:40;;;;;;;;;4.00;3.00;;;;;10.46;100.00;102124.13;4990681;28;45412;-85
2023/01/03 12:25:43;;;;;;;;;5.00;3.67;;;;;10.50;100.00;102121.66;4951419;28;45332;-83
2023/01/03 12:28:40;;;;;;;;;3.67;3.67;;;;;10.52;100.00;102124.34;4965588;28;45326;-84
2023/01/03 12:31:18;;;;;;;;;3.00;3.00;;;;;10.53;100.00;102120.84;4933443;28;44714;-82
2023/01/03 12:34:08;;;;;;;;;4.33;4.33;;;;;10.63;100.00;102122.09;4955319;28;45328;-82
2023/01/03 12:37:08;;;;;;;;;8.00;7.33;;;;;10.47;100.00;102078.06;4945054;28;45440;-80
2023/01/03 12:39:55;;;;;;;;;7.00;7.00;;;;;10.82;100.00;102113.91;4953719;28;45527;-83
2023/01/03 12:42:42;;;;;;;;;5.33;5.33;;;;;10.72;100.00;102066.53;4937365;28;44843;-81
2023/01/03 12:45:20;;;;;;;;;5.00;5.00;;;;;11.00;100.00;102095.91;4934372;28;44788;-82
2023/01/03 12:47:55;;;;;;;;;6.00;6.00;;;;;11.04;100.00;102090.69;4943968;28;44850;-82
2023/01/03 12:50:51;;;;;;;;;9.00;7.67;;;;;11.21;100.00;102097.50;4942240;28;46966;-81
2023/01/03 12:53:19;;;;;;;;;2.67;2.67;;;;;11.31;100.00;102091.63;4940966;28;46048;-84
2023/01/03 12:55:45;;;;;;;;;3.67;3.67;;;;;11.41;100.00;102096.38;4966566;28;45444;-81
2023/01/03 12:58:33;;;;;;;;;7.00;5.00;;;;;11.50;100.00;102089.53;4973752;28;45020;-83
2023/01/03 13:07:44;;;;;;;;;8.00;8.00;;;;;11.29;100.00;102020.50;5032695;28;45351;-84
2023/01/03 13:10:34;;;;;;;;;9.67;6.67;;;;;11.32;100.00;102021.50;5002623;28;45513;-84
2023/01/03 13:13:12;;;;;;;;;4.67;4.67;;;;;11.62;100.00;102055.28;5014519;28;47092;-83
2023/01/03 13:15:51;;;;;;;;;4.33;3.00;;;;;11.59;100.00;102069.44;5014746;28;44828;-83
2023/01/03 13:18:22;;;;;;;;;4.33;3.67;;;;;11.58;100.00;102066.72;5015651;28;45331;-83
2023/01/03 13:21:31;;;;;;;;;4.67;4.67;;;;;11.70;100.00;102064.44;5028645;28;45439;-83
2023/01/03 13:24:07;;;;;;;;;3.67;3.67;;;;;11.70;100.00;102082.19;5010920;28;47806;-84
2023/01/03 13:26:33;;;;;;;;;4.67;4.00;;;;;11.69;100.00;102075.91;5036179;28;45379;-84
2023/01/03 13:29:42;;;;;;;;;4.00;4.00;;;;;11.70;100.00;102067.09;5038780;28;45201;-84
2023/01/03 13:32:28;;;;;;;;;7.00;5.00;;;;;11.67;100.00;102066.97;5011147;28;45426;-84
2023/01/03 13:38:24;;;;;;;;;5.33;5.33;;;;;11.80;100.00;102069.16;5011010;28;45297;-83
2023/01/03 13:47:50;;;;;;;;;8.00;5.33;;;;;11.71;100.00;102010.25;5034092;28;45471;-85
2023/01/03 13:50:36;;;;;;;;;11.33;10.33;;;;;11.94;100.00;102060.72;5034025;28;45268;-84
2023/01/03 13:53:12;;;;;;;;;5.33;5.33;;;;;11.91;100.00;102052.63;5048856;28;45301;-83